createdAt,value
2022-08-22T00:00:14.164Z,98595.47
2022-08-22T00:02:57.967Z,98589.66
2022-08-22T00:03:06.868Z,98587.16
2022-08-22T00:03:10.965Z,98592.69
2022-08-22T00:03:17.341Z,98595.63
2022-08-22T00:05:51.255Z,98591.25
2022-08-22T00:08:28.083Z,98596.47
2022-08-22T00:11:02.731Z,98592.44
2022-08-22T00:13:38.443Z,98601.16
2022-08-22T00:16:14.833Z,98597.16
2022-08-22T00:18:53.145Z,98594.97
2022-08-22T00:21:27.665Z,98597.97
2022-08-22T00:24:15.885Z,98587.06
2022-08-22T00:26:50.811Z,98590.47
2022-08-22T00:29:23.859Z,98590.97
2022-08-22T00:32:08.823Z,98591.47
2022-08-22T00:34:45.549Z,98593.00
2022-08-22T00:37:24.747Z,98599.06
2022-08-22T00:40:04.269Z,98585.78
2022-08-22T00:43:01.936Z,98588.50
2022-08-22T00:45:45.726Z,98597.22
2022-08-22T00:48:29.103Z,98586.47
2022-08-22T00:51:31.754Z,98594.53
2022-08-22T00:54:16.840Z,98596.72
2022-08-22T00:57:07.831Z,98588.81
2022-08-22T01:00:05.795Z,98585.78
2022-08-22T01:02:51.921Z,98580.56
2022-08-22T01:05:44.352Z,98566.31
2022-08-22T01:08:34.034Z,98585.47
2022-08-22T01:11:17.803Z,98577.91
2022-08-22T01:14:03.275Z,98583.78
2022-08-22T01:16:54.894Z,98580.94
2022-08-22T01:19:53.073Z,98575.72
2022-08-22T01:23:11.450Z,98575.91
2022-08-22T01:26:21.612Z,98570.84
2022-08-22T01:29:17.750Z,98559.09
2022-08-22T01:32:18.644Z,98557.91
2022-08-22T01:35:16.776Z,98553.41
2022-08-22T01:38:20.056Z,98549.53
2022-08-22T01:41:29.311Z,98536.09
2022-08-22T01:44:09.721Z,98543.44
2022-08-22T01:46:48.555Z,98537.06
2022-08-22T01:49:21.792Z,98538.91
2022-08-22T01:51:55.915Z,98538.59
2022-08-22T01:54:36.000Z,98533.53
2022-08-22T01:57:09.046Z,98543.75
2022-08-22T01:59:42.410Z,98541.59
2022-08-22T02:02:25.615Z,98528.34
2022-08-22T02:05:01.141Z,98540.09
2022-08-22T02:07:36.886Z,98538.41
2022-08-22T02:10:13.921Z,98537.59
2022-08-22T02:12:48.005Z,98538.94
2022-08-22T02:15:26.078Z,98545.00
2022-08-22T02:18:13.444Z,98532.88
2022-08-22T02:20:57.667Z,98534.03
2022-08-22T02:23:34.684Z,98524.13
2022-08-22T02:26:09.478Z,98532.19
2022-08-22T02:28:57.238Z,98527.66
2022-08-22T02:31:37.917Z,98532.19
2022-08-22T02:34:24.363Z,98530.84
2022-08-22T02:36:58.059Z,98530.84
2022-08-22T02:39:36.963Z,98528.66
2022-08-22T02:42:18.308Z,98534.03
2022-08-22T02:44:56.039Z,98529.84
2022-08-22T02:47:35.930Z,98532.38
2022-08-22T02:50:14.515Z,98539.09
2022-08-22T02:52:57.370Z,98524.44
2022-08-22T02:55:39.329Z,98520.44
2022-08-22T02:58:27.857Z,98529.50
2022-08-22T03:01:24.311Z,98511.19
2022-08-22T03:03:53.794Z,98531.84
2022-08-22T03:06:39.963Z,98532.34
2022-08-22T03:09:25.102Z,98538.53
2022-08-22T03:12:06.435Z,98530.00
2022-08-22T03:14:41.270Z,98534.69
2022-08-22T03:17:14.908Z,98543.91
2022-08-22T03:19:49.031Z,98549.78
2022-08-22T03:22:23.564Z,98546.06
2022-08-22T03:24:57.988Z,98548.03
2022-08-22T03:27:32.410Z,98549.53
2022-08-22T03:30:07.347Z,98552.59
2022-08-22T03:32:53.907Z,98549.88
2022-08-22T03:35:32.496Z,98547.91
2022-08-22T03:38:18.295Z,98549.63
2022-08-22T03:41:05.623Z,98551.81
2022-08-22T03:43:52.900Z,98552.13
2022-08-22T03:46:46.956Z,98545.63
2022-08-22T03:50:05.568Z,98549.94
2022-08-22T03:53:18.766Z,98543.06
2022-08-22T03:56:25.974Z,98553.94
2022-08-22T03:59:15.378Z,98548.56
2022-08-22T04:02:35.837Z,98544.81
2022-08-22T04:05:56.372Z,98550.78
2022-08-22T04:09:05.127Z,98550.03
2022-08-22T04:12:09.061Z,98554.84
2022-08-22T04:15:08.513Z,98557.88
2022-08-22T04:18:18.172Z,98556.34
2022-08-22T04:21:13.929Z,98549.56
2022-08-22T04:24:01.408Z,98555.81
2022-08-22T04:26:38.250Z,98551.78
2022-08-22T04:29:19.882Z,98558.28
2022-08-22T04:31:58.448Z,98559.78
2022-08-22T04:34:33.499Z,98562.69
2022-08-22T04:37:10.117Z,98568.13
2022-08-22T04:39:48.292Z,98570.59
2022-08-22T04:42:32.721Z,98565.50
2022-08-22T04:45:07.110Z,98563.88
2022-08-22T04:47:41.661Z,98567.38
2022-08-22T04:50:17.188Z,98564.50
2022-08-22T04:52:57.686Z,98566.44
2022-08-22T04:55:33.845Z,98555.97
2022-08-22T04:58:12.151Z,98558.38
2022-08-22T05:00:46.190Z,98558.66
2022-08-22T05:03:21.332Z,98565.25
2022-08-22T05:05:50.940Z,98551.25
2022-08-22T05:08:25.236Z,98568.91
2022-08-22T05:10:54.207Z,98564.56
2022-08-22T05:13:28.931Z,98572.63
2022-08-22T05:16:03.231Z,98571.31
2022-08-22T05:18:37.498Z,98576.91
2022-08-22T05:21:09.068Z,98571.53
2022-08-22T05:23:48.299Z,98571.53
2022-08-22T05:26:18.356Z,98572.75
2022-08-22T05:28:52.884Z,98567.22
2022-08-22T05:31:27.553Z,98573.69
2022-08-22T05:34:02.013Z,98571.84
2022-08-22T05:36:34.194Z,98576.06
2022-08-22T05:39:06.194Z,98579.78
2022-08-22T05:41:37.802Z,98577.56
2022-08-22T05:44:09.159Z,98580.22
2022-08-22T05:46:42.492Z,98576.25
2022-08-22T05:49:19.234Z,98585.03
2022-08-22T05:51:53.721Z,98582.69
2022-08-22T05:54:33.531Z,98580.69
2022-08-22T05:57:11.402Z,98590.31
2022-08-22T05:59:44.195Z,98597.41
2022-08-22T06:02:19.983Z,98591.38
2022-08-22T06:04:52.091Z,98585.91
2022-08-22T06:07:25.353Z,98597.16
2022-08-22T06:10:08.534Z,98601.25
2022-08-22T06:12:43.167Z,98608.50
2022-08-22T06:15:20.808Z,98610.16
2022-08-22T06:17:52.199Z,98611.81
2022-08-22T06:20:28.793Z,98612.66
2022-08-22T06:23:01.638Z,98618.69
2022-08-22T06:25:33.614Z,98615.50
2022-08-22T06:28:08.004Z,98631.09
2022-08-22T06:30:38.115Z,98629.84
2022-08-22T06:33:12.336Z,98619.31
2022-08-22T06:36:02.954Z,98638.03
2022-08-22T06:38:33.625Z,98634.66
2022-08-22T06:41:04.302Z,98632.59
2022-08-22T06:43:42.866Z,98631.13
2022-08-22T06:46:14.497Z,98632.56
2022-08-22T06:48:42.786Z,98616.88
2022-08-22T06:51:15.331Z,98607.25
2022-08-22T06:53:48.103Z,98637.47
2022-08-22T06:56:22.435Z,98639.75
2022-08-22T06:58:53.392Z,98635.31
2022-08-22T07:01:23.503Z,98625.03
2022-08-22T07:03:54.607Z,98637.19
2022-08-22T07:06:31.383Z,98624.66
2022-08-22T07:08:59.582Z,98620.47
2022-08-22T07:11:38.303Z,98638.81
2022-08-22T07:14:08.604Z,98638.13
2022-08-22T07:16:42.687Z,98642.97
2022-08-22T07:19:14.451Z,98638.34
2022-08-22T07:21:46.272Z,98635.56
2022-08-22T07:24:17.173Z,98643.91
2022-08-22T07:27:04.760Z,98633.47
2022-08-22T07:29:44.276Z,98631.41
2022-08-22T07:32:18.000Z,98626.38
2022-08-22T07:35:10.393Z,98633.34
2022-08-22T07:37:51.324Z,98619.28
2022-08-22T07:40:25.717Z,98625.44
2022-08-22T07:43:00.399Z,98624.66
2022-08-22T07:45:36.216Z,98616.19
2022-08-22T07:48:19.744Z,98626.63
2022-08-22T07:51:01.692Z,98626.59
2022-08-22T07:53:40.218Z,98630.63
2022-08-22T07:56:17.092Z,98615.84
2022-08-22T07:58:47.449Z,98630.72
2022-08-22T08:01:21.034Z,98614.78
2022-08-22T08:03:52.572Z,98636.09
2022-08-22T08:06:23.326Z,98633.44
2022-08-22T08:08:54.162Z,98634.31
2022-08-22T08:11:24.979Z,98633.44
2022-08-22T08:13:57.971Z,98629.06
2022-08-22T08:16:29.851Z,98635.03
2022-08-22T08:19:01.625Z,98633.25
2022-08-22T08:21:33.020Z,98641.97
2022-08-22T08:24:06.960Z,98640.69
2022-08-22T08:26:40.028Z,98643.84
2022-08-22T08:29:08.368Z,98637.59
2022-08-22T08:31:44.887Z,98642.31
2022-08-22T08:34:20.284Z,98643.13
2022-08-22T08:36:53.961Z,98632.56
2022-08-22T08:39:28.633Z,98632.19
2022-08-22T08:43:00.816Z,98633.13
2022-08-22T08:45:44.648Z,98632.66
2022-08-22T08:48:23.053Z,98631.25
2022-08-22T08:51:09.920Z,98629.41
2022-08-22T08:54:10.480Z,98638.84
2022-08-22T08:56:54.312Z,98630.09
2022-08-22T08:59:44.343Z,98629.06
2022-08-22T09:02:36.910Z,98623.00
2022-08-22T09:05:42.243Z,98631.78
2022-08-22T09:08:55.529Z,98625.50
2022-08-22T09:12:01.656Z,98613.81
2022-08-22T09:14:52.407Z,98627.78
2022-08-22T09:17:58.872Z,98633.25
2022-08-22T09:20:49.044Z,98630.53
2022-08-22T09:23:43.311Z,98638.25
2022-08-22T09:26:17.074Z,98630.06
2022-08-22T09:28:54.664Z,98629.38
2022-08-22T09:31:48.062Z,98617.19
2022-08-22T09:34:27.104Z,98621.13
2022-08-22T09:37:14.404Z,98621.91
2022-08-22T09:39:55.425Z,98616.28
2022-08-22T09:42:33.898Z,98610.66
2022-08-22T09:45:34.293Z,98622.72
2022-08-22T09:48:11.226Z,98620.34
2022-08-22T09:50:52.694Z,98614.91
2022-08-22T09:53:43.749Z,98624.34
2022-08-22T09:56:18.855Z,98626.41
2022-08-22T09:59:01.636Z,98619.50
2022-08-22T10:01:42.345Z,98626.84
2022-08-22T10:04:42.686Z,98626.78
2022-08-22T10:07:36.012Z,98623.25
2022-08-22T10:10:17.196Z,98618.75
2022-08-22T10:12:56.621Z,98619.97
2022-08-22T10:15:36.195Z,98614.66
2022-08-22T10:18:23.616Z,98618.22
2022-08-22T10:21:10.508Z,98611.47
2022-08-22T10:23:45.926Z,98616.16
2022-08-22T10:26:34.190Z,98611.13
2022-08-22T10:29:30.304Z,98612.47
2022-08-22T10:32:13.898Z,98615.63
2022-08-22T10:34:49.090Z,98608.66
2022-08-22T10:37:37.180Z,98602.63
2022-08-22T10:40:21.361Z,98608.53
2022-08-22T10:42:53.791Z,98604.06
2022-08-22T10:45:36.564Z,98608.00
2022-08-22T10:48:33.882Z,98598.75
2022-08-22T10:51:16.924Z,98595.34
2022-08-22T10:54:12.601Z,98592.84
2022-08-22T10:56:53.660Z,98589.09
2022-08-22T10:59:34.094Z,98590.03
2022-08-22T11:02:23.714Z,98585.50
2022-08-22T11:05:17.166Z,98582.09
2022-08-22T11:07:50.438Z,98586.94
2022-08-22T11:10:28.902Z,98588.81
2022-08-22T11:13:13.692Z,98586.03
2022-08-22T11:15:59.402Z,98578.16
2022-08-22T11:18:37.899Z,98573.41
2022-08-22T11:21:11.064Z,98572.81
2022-08-22T11:23:48.302Z,98569.22
2022-08-22T11:26:46.667Z,98565.81
2022-08-22T11:29:27.758Z,98563.22
2022-08-22T11:32:07.710Z,98568.44
2022-08-22T11:34:51.923Z,98553.56
2022-08-22T11:37:54.818Z,98544.38
2022-08-22T11:40:38.870Z,98551.28
2022-08-22T11:43:21.860Z,98540.38
2022-08-22T11:45:55.036Z,98551.25
2022-08-22T11:48:29.887Z,98546.66
2022-08-22T11:51:15.873Z,98540.16
2022-08-22T11:53:50.793Z,98535.97
2022-08-22T11:56:27.625Z,98538.75
2022-08-22T11:59:02.636Z,98532.69
2022-08-22T12:01:39.391Z,98532.34
2022-08-22T12:04:19.370Z,98524.31
2022-08-22T12:07:03.778Z,98524.53
2022-08-22T12:09:45.204Z,98534.25
2022-08-22T12:12:43.829Z,98524.69
2022-08-22T12:15:21.194Z,98531.53
2022-08-22T12:18:30.122Z,98528.13
2022-08-22T12:21:15.294Z,98526.66
2022-08-22T12:24:25.404Z,98521.59
2022-08-22T12:27:18.323Z,98519.00
2022-08-22T12:30:13.674Z,98520.00
2022-08-22T12:33:13.153Z,98520.34
2022-08-22T12:35:52.945Z,98512.66
2022-08-22T12:38:44.332Z,98518.09
2022-08-22T12:41:34.989Z,98507.00
2022-08-22T12:44:24.490Z,98508.66
2022-08-22T12:47:10.242Z,98504.66
2022-08-22T12:49:52.827Z,98501.72
2022-08-22T12:52:38.569Z,98499.38
2022-08-22T12:55:21.939Z,98496.94
2022-08-22T12:58:02.711Z,98481.78
2022-08-22T13:00:35.719Z,98492.31
2022-08-22T13:03:09.654Z,98495.03
2022-08-22T13:05:40.799Z,98491.59
2022-08-22T13:08:17.362Z,98489.69
2022-08-22T13:10:48.191Z,98488.72
2022-08-22T13:13:31.735Z,98484.44
2022-08-22T13:16:08.626Z,98494.81
2022-08-22T13:18:53.398Z,98493.06
2022-08-22T13:21:32.128Z,98490.28
2022-08-22T13:24:10.843Z,98478.06
2022-08-22T13:26:48.966Z,98445.78
2022-08-22T13:29:26.150Z,98451.84
2022-08-22T13:32:00.634Z,98460.03
2022-08-22T13:34:39.844Z,98458.09
2022-08-22T13:37:14.948Z,98429.38
2022-08-22T13:39:58.906Z,98470.75
2022-08-22T13:42:31.315Z,98431.31
2022-08-22T13:45:05.613Z,98443.38
2022-08-22T13:48:08.657Z,98403.97
2022-08-22T13:50:58.086Z,98440.28
2022-08-22T13:53:50.037Z,98401.59
2022-08-22T13:56:43.503Z,98391.28
2022-08-22T14:00:48.772Z,98381.19
2022-08-22T14:07:34.085Z,98432.50
2022-08-22T14:10:06.202Z,98409.94
2022-08-22T14:13:07.467Z,98400.66
2022-08-22T14:15:45.560Z,98447.69
2022-08-22T14:18:18.644Z,98408.13
2022-08-22T14:23:39.599Z,98421.97
2022-08-22T14:26:08.008Z,98414.09
2022-08-22T14:28:40.860Z,98436.41
2022-08-22T14:31:13.636Z,98380.75
2022-08-22T14:33:48.360Z,98405.56
2022-08-22T14:36:23.305Z,98377.31
2022-08-22T14:39:18.694Z,98432.66
2022-08-22T14:41:56.528Z,98371.41
2022-08-22T14:48:30.267Z,98355.19
2022-08-22T14:54:39.011Z,98365.31
2022-08-22T14:58:47.524Z,98354.25
2022-08-22T15:01:29.718Z,98373.94
2022-08-22T15:13:11.492Z,98336.28
2022-08-22T15:22:13.478Z,98371.53
2022-08-22T15:24:46.872Z,98342.34
2022-08-22T15:30:44.505Z,98348.13
2022-08-22T15:33:22.828Z,98318.59
2022-08-22T15:35:53.801Z,98369.25
2022-08-22T15:38:29.274Z,98342.34
2022-08-22T15:41:18.269Z,98385.47
2022-08-22T15:47:24.199Z,98349.53
2022-08-22T15:50:15.328Z,98350.66
2022-08-22T15:53:13.507Z,98377.56
2022-08-22T15:56:22.441Z,98345.13
2022-08-22T15:58:55.477Z,98346.84
2022-08-22T16:01:26.796Z,98340.22
2022-08-22T16:04:01.204Z,98329.16
2022-08-22T16:06:45.291Z,98366.00
2022-08-22T16:09:34.744Z,98368.91
2022-08-22T16:12:07.066Z,98372.06
2022-08-22T16:15:22.747Z,98373.31
2022-08-22T16:17:53.276Z,98359.13
2022-08-22T16:20:50.903Z,98378.19
2022-08-22T16:24:04.127Z,98370.66
2022-08-22T16:26:43.061Z,98368.50
2022-08-22T16:29:35.546Z,98371.63
2022-08-22T16:32:11.984Z,98367.25
2022-08-22T16:34:43.960Z,98369.25
2022-08-22T16:37:35.787Z,98370.41
2022-08-22T16:40:17.627Z,98366.94
2022-08-22T16:42:53.161Z,98366.81
2022-08-22T16:45:34.982Z,98364.56
2022-08-22T16:48:33.723Z,98358.88
2022-08-22T16:51:21.285Z,98362.00
2022-08-22T16:54:11.834Z,98362.63
2022-08-22T16:57:04.137Z,98365.47
2022-08-22T17:00:04.761Z,98364.66
2022-08-22T17:02:53.490Z,98369.03
2022-08-22T17:05:30.838Z,98356.59
2022-08-22T17:08:14.537Z,98369.09
2022-08-22T17:10:59.753Z,98342.25
2022-08-22T17:13:50.407Z,98333.09
2022-08-22T17:16:42.668Z,98375.38
2022-08-22T17:19:25.623Z,98371.31
2022-08-22T17:21:58.969Z,98373.50
2022-08-22T17:24:35.396Z,98372.44
2022-08-22T17:27:09.131Z,98357.50
2022-08-22T17:29:47.343Z,98365.34
2022-08-22T17:32:28.034Z,98368.47
2022-08-22T17:35:16.032Z,98376.50
2022-08-22T17:38:02.327Z,98381.03
2022-08-22T17:40:45.787Z,98379.03
2022-08-22T17:43:21.904Z,98375.91
2022-08-22T17:46:06.508Z,98376.66
2022-08-22T17:48:51.555Z,98368.34
2022-08-22T17:51:28.745Z,98393.63
2022-08-22T17:54:02.825Z,98391.38
2022-08-22T17:56:46.399Z,98390.19
2022-08-22T17:59:22.472Z,98395.56
2022-08-22T18:01:55.114Z,98387.19
2022-08-22T18:04:32.358Z,98384.69
2022-08-22T18:07:20.644Z,98396.19
2022-08-22T18:09:53.722Z,98394.28
2022-08-22T18:12:31.201Z,98402.75
2022-08-22T18:15:08.349Z,98392.47
2022-08-22T18:17:41.372Z,98405.03
2022-08-22T18:20:16.328Z,98397.03
2022-08-22T18:22:49.717Z,98415.72
2022-08-22T18:25:41.903Z,98414.38
2022-08-22T18:28:22.253Z,98422.16
2022-08-22T18:31:02.178Z,98411.53
2022-08-22T18:33:35.626Z,98415.66
2022-08-22T18:36:14.286Z,98418.63
2022-08-22T18:38:55.217Z,98422.94
2022-08-22T18:41:30.363Z,98432.69
2022-08-22T18:44:01.613Z,98427.94
2022-08-22T18:46:42.543Z,98419.41
2022-08-22T18:49:28.370Z,98434.25
2022-08-22T18:52:17.173Z,98429.09
2022-08-22T18:55:08.893Z,98441.66
2022-08-22T18:57:55.161Z,98450.03
2022-08-22T19:00:37.667Z,98443.78
2022-08-22T19:03:36.269Z,98445.09
2022-08-22T19:06:38.099Z,98457.03
2022-08-22T19:09:49.988Z,98448.47
2022-08-22T19:12:36.456Z,98448.47
2022-08-22T19:15:20.480Z,98457.25
2022-08-22T19:18:08.461Z,98458.50
2022-08-22T19:20:56.360Z,98462.91
2022-08-22T19:23:47.787Z,98465.63
2022-08-22T19:26:42.690Z,98468.09
2022-08-22T19:29:55.621Z,98474.59
2022-08-22T19:33:05.380Z,98471.44
2022-08-22T19:35:47.311Z,98479.19
2022-08-22T19:38:53.781Z,98480.84
2022-08-22T19:41:52.608Z,98480.66
2022-08-22T19:44:42.647Z,98477.94
2022-08-22T19:47:34.895Z,98478.75
2022-08-22T19:50:08.953Z,98478.94
2022-08-22T19:52:59.062Z,98483.75
2022-08-22T19:55:42.104Z,98482.28
2022-08-22T19:58:31.860Z,98475.00
2022-08-22T20:01:07.623Z,98464.53
2022-08-22T20:03:46.259Z,98470.38
2022-08-22T20:06:43.097Z,98473.50
2022-08-22T20:09:35.459Z,98466.34
2022-08-22T20:12:16.307Z,98481.72
2022-08-22T20:14:48.549Z,98477.75
2022-08-22T20:17:41.534Z,98475.22
2022-08-22T20:20:19.362Z,98479.38
2022-08-22T20:22:56.755Z,98483.53
2022-08-22T20:25:42.861Z,98476.84
2022-08-22T20:28:31.515Z,98479.53
2022-08-22T20:31:03.981Z,98480.97
2022-08-22T20:33:35.692Z,98481.19
2022-08-22T20:36:06.635Z,98474.53
2022-08-22T20:38:56.046Z,98480.75
2022-08-22T20:41:28.206Z,98477.84
2022-08-22T20:44:02.023Z,98481.78
2022-08-22T20:46:46.616Z,98480.28
2022-08-22T20:49:19.760Z,98475.06
2022-08-22T20:51:53.699Z,98483.50
2022-08-22T20:54:25.857Z,98482.59
2022-08-22T20:56:57.149Z,98480.97
2022-08-22T20:59:37.222Z,98477.97
2022-08-22T21:02:15.339Z,98472.78
2022-08-22T21:04:52.903Z,98474.75
2022-08-22T21:07:26.730Z,98474.63
2022-08-22T21:10:12.701Z,98471.19
2022-08-22T21:12:40.948Z,98469.41
2022-08-22T21:15:10.230Z,98470.47
2022-08-22T21:17:39.738Z,98478.16
2022-08-22T21:20:21.258Z,98471.63
2022-08-22T21:22:50.154Z,98472.47
2022-08-22T21:25:18.435Z,98474.94
2022-08-22T21:27:52.402Z,98475.16
2022-08-22T21:30:24.975Z,98469.41
2022-08-22T21:32:56.359Z,98482.16
2022-08-22T21:35:30.355Z,98488.53
2022-08-22T21:37:59.148Z,98482.03
2022-08-22T21:40:33.488Z,98499.03
2022-08-22T21:43:07.610Z,98501.56
2022-08-22T21:45:42.856Z,98498.78
2022-08-22T21:48:36.242Z,98497.56
2022-08-22T21:51:32.965Z,98496.31
2022-08-22T21:54:33.655Z,98506.31
2022-08-22T21:57:19.861Z,98496.78
2022-08-22T21:59:51.607Z,98491.50
2022-08-22T22:02:31.149Z,98505.78
2022-08-22T22:05:03.579Z,98495.31
2022-08-22T22:07:32.059Z,98494.84
2022-08-22T22:10:00.329Z,98500.75
2022-08-22T22:12:28.367Z,98511.50
2022-08-22T22:14:56.415Z,98512.91
2022-08-22T22:17:24.509Z,98520.59
2022-08-22T22:19:52.827Z,98520.13
2022-08-22T22:22:22.664Z,98520.88
2022-08-22T22:24:50.711Z,98527.94
2022-08-22T22:27:18.846Z,98526.13
2022-08-22T22:29:46.890Z,98536.81
2022-08-22T22:32:15.287Z,98526.84
2022-08-22T22:34:43.356Z,98543.66
2022-08-22T22:37:14.916Z,98535.72
2022-08-22T22:39:44.828Z,98540.13
2022-08-22T22:42:13.517Z,98536.13
2022-08-22T22:44:41.801Z,98541.91
2022-08-22T22:47:15.948Z,98531.41
2022-08-22T22:49:45.641Z,98533.78
2022-08-22T22:52:15.226Z,98542.72
2022-08-22T22:54:47.487Z,98556.13
2022-08-22T22:57:25.406Z,98549.44
2022-08-22T22:59:54.492Z,98552.72
2022-08-22T23:02:24.784Z,98544.81
2022-08-22T23:04:56.402Z,98538.94
2022-08-22T23:07:25.828Z,98543.59
2022-08-22T23:09:57.087Z,98544.34
2022-08-22T23:12:28.073Z,98531.31
2022-08-22T23:14:56.085Z,98541.72
2022-08-22T23:17:24.455Z,98550.38
2022-08-22T23:19:52.668Z,98545.97
2022-08-22T23:22:21.454Z,98545.22
2022-08-22T23:24:51.854Z,98555.81
2022-08-22T23:27:21.387Z,98552.50
2022-08-22T23:29:50.930Z,98557.91
2022-08-22T23:32:19.503Z,98545.84
2022-08-22T23:34:49.460Z,98571.56
2022-08-22T23:37:19.803Z,98571.72
2022-08-22T23:39:48.384Z,98563.28
2022-08-22T23:42:18.145Z,98571.81
2022-08-22T23:44:47.644Z,98570.81
2022-08-22T23:47:16.630Z,98578.25
2022-08-22T23:49:45.758Z,98584.97
2022-08-22T23:52:14.271Z,98557.41
2022-08-22T23:54:42.768Z,98581.91
2022-08-22T23:57:11.663Z,98565.31
2022-08-22T23:59:48.418Z,98578.63
